Time;durP1;ratioP1;P1;durP2;ratioP2;P2;SDS_P1;SDS_P2;PMS_P1;PMS_P2;Temp;Humidity;BMP_temperature;BMP_pressure;BME280_temperature;BME280_humidity;BME280_pressure;Samples;Min_cycle;Max_cycle;Signal;HPM_P1;HPM_P2
2023/08/29 00:01:56;;;;;;;7.43;3.28;;;;;;;;;;12838138;23;20079;-67
2023/08/29 00:06:56;;;;;;;4.10;3.17;;;;;;;;;;12885694;23;20047;-67
2023/08/29 00:11:57;;;;;;;7.00;3.80;;;;;;;;;;12885983;23;20020;-67
2023/08/29 00:16:57;;;;;;;4.22;3.05;;;;;;;;;;12885363;23;19996;-67
2023/08/29 00:21:59;;;;;;;7.10;3.60;;;;;;;;;;12885608;23;20012;-67
2023/08/29 00:26:59;;;;;;;6.70;3.38;;;;;;;;;;12885907;23;19992;-67
2023/08/29 00:31:59;;;;;;;4.75;3.45;;;;;;;;;;12885677;23;20382;-67
2023/08/29 00:37:00;;;;;;;5.80;3.13;;;;;;;;;;12885342;23;20039;-67
2023/08/29 00:42:00;;;;;;;6.20;3.40;;;;;;;;;;12885593;23;20048;-67
2023/08/29 00:47:03;;;;;;;4.15;2.90;;;;;;;;;;12885413;23;20039;-67
2023/08/29 00:52:05;;;;;;;5.68;3.13;;;;;;;;;;12867966;23;20283;-67
2023/08/29 00:57:05;;;;;;;4.28;2.95;;;;;;;;;;12879592;23;20011;-67
2023/08/29 01:02:06;;;;;;;6.00;3.35;;;;;;;;;;12868577;23;20016;-67
2023/08/29 01:07:06;;;;;;;5.00;3.05;;;;;;;;;;12884264;23;20099;-67
2023/08/29 01:12:16;;;;;;;6.80;3.23;;;;;;;;;;12884756;23;20003;-67
2023/08/29 01:17:25;;;;;;;4.75;3.60;;;;;;;;;;12884471;23;19994;-67
2023/08/29 01:22:34;;;;;;;6.40;3.88;;;;;;;;;;12884624;23;20409;-67
2023/08/29 01:27:34;;;;;;;4.85;3.33;;;;;;;;;;12884268;23;20023;-66
2023/08/29 01:32:35;;;;;;;11.23;3.05;;;;;;;;;;12884240;23;20336;-66
2023/08/29 01:37:35;;;;;;;8.02;3.70;;;;;;;;;;12884060;23;19992;-67
2023/08/29 01:42:36;;;;;;;8.70;3.83;;;;;;;;;;12884183;23;20336;-67
2023/08/29 01:47:36;;;;;;;7.15;3.08;;;;;;;;;;12884131;23;19988;-67
2023/08/29 01:52:37;;;;;;;4.30;3.35;;;;;;;;;;12883636;23;19999;-66
2023/08/29 01:57:38;;;;;;;6.15;4.30;;;;;;;;;;12883810;23;20330;-68
2023/08/29 02:02:38;;;;;;;7.50;3.58;;;;;;;;;;12865453;23;20028;-68
2023/08/29 02:07:39;;;;;;;7.45;3.42;;;;;;;;;;12883676;23;20024;-69
2023/08/29 02:12:39;;;;;;;5.57;3.45;;;;;;;;;;12883725;23;20283;-68
2023/08/29 02:17:39;;;;;;;8.63;3.65;;;;;;;;;;12883696;23;19993;-68
2023/08/29 02:22:40;;;;;;;7.28;3.72;;;;;;;;;;12883475;23;19995;-68
2023/08/29 02:27:40;;;;;;;9.27;4.07;;;;;;;;;;12883474;23;20027;-68
2023/08/29 02:32:40;;;;;;;8.27;3.78;;;;;;;;;;12883522;23;20003;-69
2023/08/29 02:37:41;;;;;;;7.43;3.70;;;;;;;;;;12884655;23;20031;-69
2023/08/29 02:42:41;;;;;;;8.52;4.50;;;;;;;;;;12887406;23;20039;-68
2023/08/29 02:47:41;;;;;;;5.20;3.20;;;;;;;;;;12887744;23;20197;-68
2023/08/29 02:52:41;;;;;;;5.90;3.38;;;;;;;;;;12887326;23;19996;-68
2023/08/29 02:57:42;;;;;;;6.53;3.97;;;;;;;;;;12887357;23;20056;-68
2023/08/29 03:02:42;;;;;;;5.50;3.70;;;;;;;;;;12868520;23;20008;-68
2023/08/29 03:07:42;;;;;;;16.73;3.78;;;;;;;;;;12887094;23;19992;-68
2023/08/29 03:12:43;;;;;;;11.27;3.65;;;;;;;;;;12878438;23;20008;-68
2023/08/29 03:17:43;;;;;;;7.93;3.22;;;;;;;;;;12888045;23;20279;-67
2023/08/29 03:22:44;;;;;;;6.85;4.13;;;;;;;;;;12886768;23;20034;-67
2023/08/29 03:27:44;;;;;;;8.40;3.77;;;;;;;;;;12886591;23;20309;-67
2023/08/29 03:32:49;;;;;;;4.63;3.20;;;;;;;;;;12886320;23;19993;-67
2023/08/29 03:37:49;;;;;;;4.90;3.83;;;;;;;;;;12886558;23;20186;-67
2023/08/29 03:42:49;;;;;;;7.13;3.95;;;;;;;;;;12886131;23;19995;-67
2023/08/29 03:47:49;;;;;;;6.85;3.90;;;;;;;;;;12886183;23;20082;-67
2023/08/29 03:52:50;;;;;;;7.00;3.67;;;;;;;;;;12885579;23;20029;-67
2023/08/29 03:57:50;;;;;;;6.60;3.67;;;;;;;;;;12886077;23;20035;-67
2023/08/29 04:02:50;;;;;;;7.85;3.92;;;;;;;;;;12866591;23;20023;-67
2023/08/29 04:07:51;;;;;;;6.07;3.50;;;;;;;;;;12883742;23;20003;-67
2023/08/29 04:12:51;;;;;;;9.53;4.77;;;;;;;;;;12881554;23;20279;-67
2023/08/29 04:17:51;;;;;;;5.32;3.80;;;;;;;;;;12882097;23;19988;-66
2023/08/29 04:22:52;;;;;;;9.93;4.10;;;;;;;;;;12834150;23;20020;-66
2023/08/29 04:27:52;;;;;;;8.00;3.80;;;;;;;;;;12881783;23;20167;-66
2023/08/29 04:32:53;;;;;;;5.50;4.10;;;;;;;;;;12881010;23;19996;-70
2023/08/29 04:37:54;;;;;;;6.80;3.38;;;;;;;;;;12882950;23;19993;-71
2023/08/29 04:42:54;;;;;;;9.70;3.65;;;;;;;;;;12884963;23;20008;-71
2023/08/29 04:47:54;;;;;;;7.85;3.53;;;;;;;;;;12884868;23;20171;-71
2023/08/29 04:52:55;;;;;;;5.55;4.03;;;;;;;;;;12882843;23;20004;-71
2023/08/29 04:57:56;;;;;;;10.77;4.07;;;;;;;;;;12884937;23;20220;-71
2023/08/29 05:02:56;;;;;;;11.43;4.05;;;;;;;;;;12863411;23;20016;-72
2023/08/29 05:07:57;;;;;;;5.47;3.73;;;;;;;;;;12880894;23;20000;-67
2023/08/29 05:12:57;;;;;;;10.30;3.75;;;;;;;;;;12880721;23;19997;-67
2023/08/29 05:17:58;;;;;;;9.48;3.00;;;;;;;;;;12881806;23;19988;-67
2023/08/29 05:22:58;;;;;;;11.65;3.28;;;;;;;;;;12881853;23;20047;-69
2023/08/29 05:27:59;;;;;;;6.38;3.50;;;;;;;;;;12882862;23;19997;-67
2023/08/29 05:32:59;;;;;;;8.85;3.70;;;;;;;;;;12882595;23;20012;-69
2023/08/29 05:38:00;;;;;;;13.53;3.07;;;;;;;;;;12835385;23;19992;-68
2023/08/29 05:43:00;;;;;;;8.90;2.85;;;;;;;;;;12882435;23;20228;-70
2023/08/29 05:48:00;;;;;;;8.57;3.40;;;;;;;;;;12882840;23;20283;-69
2023/08/29 05:53:00;;;;;;;7.00;3.42;;;;;;;;;;12883479;23;20256;-67
2023/08/29 05:58:01;;;;;;;6.72;2.90;;;;;;;;;;12883233;23;20012;-66
2023/08/29 06:03:05;;;;;;;11.60;3.90;;;;;;;;;;12861742;23;20008;-66
2023/08/29 06:08:06;;;;;;;6.30;3.00;;;;;;;;;;12884069;23;20447;-66
2023/08/29 06:13:06;;;;;;;6.65;3.10;;;;;;;;;;12882641;23;20068;-66
2023/08/29 06:18:06;;;;;;;9.57;4.10;;;;;;;;;;12883281;23;20041;-66
2023/08/29 06:23:07;;;;;;;5.63;3.33;;;;;;;;;;12883005;23;20052;-66
2023/08/29 06:28:07;;;;;;;3.40;2.92;;;;;;;;;;12835512;23;20035;-66
2023/08/29 06:33:07;;;;;;;13.68;3.90;;;;;;;;;;12882980;23;20047;-66
2023/08/29 06:38:07;;;;;;;5.45;2.67;;;;;;;;;;12883004;23;20153;-66
2023/08/29 06:43:08;;;;;;;7.50;3.65;;;;;;;;;;12882422;23;20290;-66
2023/08/29 06:48:08;;;;;;;5.03;3.20;;;;;;;;;;12882699;23;19989;-66
2023/08/29 06:53:08;;;;;;;6.25;3.60;;;;;;;;;;12882795;23;20271;-66
2023/08/29 06:58:08;;;;;;;5.05;3.28;;;;;;;;;;12856019;23;20023;-66
2023/08/29 07:03:09;;;;;;;12.05;3.67;;;;;;;;;;12862348;23;20064;-66
2023/08/29 07:08:09;;;;;;;8.55;2.92;;;;;;;;;;12882948;23;19996;-66
2023/08/29 07:13:09;;;;;;;10.02;4.43;;;;;;;;;;12882148;23;20021;-66
2023/08/29 07:18:10;;;;;;;5.55;3.08;;;;;;;;;;12882467;23;19993;-66
2023/08/29 07:23:10;;;;;;;7.78;3.20;;;;;;;;;;12882360;23;20002;-66
2023/08/29 07:28:12;;;;;;;8.60;3.33;;;;;;;;;;12886287;23;20344;-66
2023/08/29 07:33:15;;;;;;;8.80;2.92;;;;;;;;;;12886180;23;20072;-66
2023/08/29 07:38:17;;;;;;;5.15;2.92;;;;;;;;;;12886291;23;19992;-66
2023/08/29 07:43:17;;;;;;;7.10;2.75;;;;;;;;;;12885448;23;20199;-66
2023/08/29 07:48:17;;;;;;;6.83;2.97;;;;;;;;;;12885177;23;19995;-67
2023/08/29 07:53:17;;;;;;;7.78;3.00;;;;;;;;;;12885289;23;20305;-67
2023/08/29 07:58:18;;;;;;;6.50;2.60;;;;;;;;;;12873795;23;19992;-66
2023/08/29 08:03:18;;;;;;;8.18;2.95;;;;;;;;;;12864625;23;20015;-67
2023/08/29 08:08:18;;;;;;;6.93;2.60;;;;;;;;;;12885669;23;20043;-67
2023/08/29 08:13:19;;;;;;;6.03;2.70;;;;;;;;;;12885311;23;20068;-67
2023/08/29 08:18:19;;;;;;;5.73;2.30;;;;;;;;;;12882980;23;19993;-67
2023/08/29 08:23:19;;;;;;;4.78;2.30;;;;;;;;;;12885529;23;19988;-67
2023/08/29 08:28:19;;;;;;;4.68;2.58;;;;;;;;;;12885309;23;20278;-67
2023/08/29 08:33:20;;;;;;;4.85;2.83;;;;;;;;;;12882702;23;20024;-67
2023/08/29 08:38:20;;;;;;;3.92;2.38;;;;;;;;;;12884625;23;19992;-66
2023/08/29 08:43:21;;;;;;;9.77;3.35;;;;;;;;;;12884861;23;20012;-67
2023/08/29 08:48:21;;;;;;;7.10;2.63;;;;;;;;;;12837145;23;20068;-67
2023/08/29 08:53:22;;;;;;;6.60;2.80;;;;;;;;;;12884467;23;19996;-69
2023/08/29 08:58:22;;;;;;;7.20;2.70;;;;;;;;;;12884161;23;19992;-67
2023/08/29 09:03:22;;;;;;;5.20;2.50;;;;;;;;;;12863603;23;20024;-67
2023/08/29 09:08:22;;;;;;;6.10;2.70;;;;;;;;;;12884248;23;20186;-67
2023/08/29 09:13:23;;;;;;;5.93;2.88;;;;;;;;;;12872515;23;19996;-67
2023/08/29 09:18:28;;;;;;;6.87;3.07;;;;;;;;;;12871408;23;20238;-67
2023/08/29 09:23:29;;;;;;;6.97;3.20;;;;;;;;;;12870698;23;20326;-67
2023/08/29 09:28:29;;;;;;;4.95;2.97;;;;;;;;;;12870471;23;19996;-67
2023/08/29 09:33:30;;;;;;;6.03;3.30;;;;;;;;;;12883676;23;20000;-67
2023/08/29 09:38:31;;;;;;;5.50;3.00;;;;;;;;;;12884237;23;19985;-67
2023/08/29 09:43:31;;;;;;;11.15;3.75;;;;;;;;;;12883614;23;20008;-67
2023/08/29 09:48:33;;;;;;;6.18;3.50;;;;;;;;;;12883198;23;20001;-67
2023/08/29 09:53:33;;;;;;;10.57;4.45;;;;;;;;;;12836320;23;20051;-67
2023/08/29 09:58:34;;;;;;;10.93;4.07;;;;;;;;;;12881818;23;19989;-67
2023/08/29 10:03:35;;;;;;;10.45;4.03;;;;;;;;;;12883107;23;20355;-67
2023/08/29 10:08:35;;;;;;;11.98;5.43;;;;;;;;;;12883788;23;20089;-67
2023/08/29 10:13:39;;;;;;;7.80;4.43;;;;;;;;;;12883137;23;20004;-66
2023/08/29 10:18:39;;;;;;;6.82;4.38;;;;;;;;;;12882740;23;19988;-66
2023/08/29 10:23:40;;;;;;;6.60;4.18;;;;;;;;;;12884232;23;20283;-66
2023/08/29 10:28:40;;;;;;;12.63;4.60;;;;;;;;;;12882996;23;19992;-67
2023/08/29 10:33:41;;;;;;;6.32;3.60;;;;;;;;;;12883059;23;20004;-66
2023/08/29 10:38:46;;;;;;;6.87;3.93;;;;;;;;;;12882384;23;20183;-66
2023/08/29 10:43:46;;;;;;;6.65;4.03;;;;;;;;;;12882880;23;20346;-69
2023/08/29 10:48:47;;;;;;;5.30;3.85;;;;;;;;;;12882021;23;20015;-70
2023/08/29 10:53:52;;;;;;;8.10;4.00;;;;;;;;;;12882927;23;19997;-68
2023/08/29 10:58:52;;;;;;;7.75;3.90;;;;;;;;;;12834372;23;20009;-68
2023/08/29 11:03:53;;;;;;;8.65;3.90;;;;;;;;;;12885555;23;19996;-67
2023/08/29 11:09:12;;;;;;;7.65;4.18;;;;;;;;;;12885753;23;20295;-67
2023/08/29 11:14:13;;;;;;;4.88;3.70;;;;;;;;;;12885480;23;20023;-68
2023/08/29 11:19:14;;;;;;;7.82;3.65;;;;;;;;;;12885084;23;19995;-69
2023/08/29 11:24:15;;;;;;;10.43;3.38;;;;;;;;;;12885796;23;19996;-68
2023/08/29 11:29:16;;;;;;;6.82;3.97;;;;;;;;;;12837900;23;20051;-69
2023/08/29 11:34:17;;;;;;;4.57;3.22;;;;;;;;;;12884961;23;20305;-69
2023/08/29 11:39:21;;;;;;;7.65;3.97;;;;;;;;;;12885420;23;19992;-69
2023/08/29 11:44:26;;;;;;;6.88;3.90;;;;;;;;;;12884944;23;19992;-69
2023/08/29 11:49:26;;;;;;;8.75;4.63;;;;;;;;;;12884552;23;20000;-69
2023/08/29 11:54:45;;;;;;;6.15;3.47;;;;;;;;;;12884529;23;19996;-69
2023/08/29 11:59:46;;;;;;;5.53;3.83;;;;;;;;;;12878675;23;20004;-69
2023/08/29 12:04:47;;;;;;;4.93;3.83;;;;;;;;;;12884178;23;19993;-71
2023/08/29 12:09:48;;;;;;;6.75;3.50;;;;;;;;;;12883796;23;19989;-70
2023/08/29 12:14:49;;;;;;;6.82;3.53;;;;;;;;;;12884565;23;20019;-70
2023/08/29 12:19:50;;;;;;;8.00;3.90;;;;;;;;;;12836399;23;19993;-70
2023/08/29 12:24:58;;;;;;;9.50;4.82;;;;;;;;;;12837081;23;20043;-69
2023/08/29 12:29:59;;;;;;;6.18;4.05;;;;;;;;;;12883509;23;19996;-70
2023/08/29 12:34:59;;;;;;;6.75;4.22;;;;;;;;;;12883947;23;20055;-69
2023/08/29 12:40:02;;;;;;;8.75;4.15;;;;;;;;;;12883707;23;20160;-69
2023/08/29 12:45:04;;;;;;;8.45;4.38;;;;;;;;;;12884743;23;20000;-69
2023/08/29 12:50:04;;;;;;;9.82;4.18;;;;;;;;;;12835937;23;20299;-69
2023/08/29 12:55:04;;;;;;;7.47;4.28;;;;;;;;;;12883417;23;19999;-70
2023/08/29 13:00:07;;;;;;;7.80;4.28;;;;;;;;;;12875747;23;20012;-70
2023/08/29 13:05:07;;;;;;;8.57;4.25;;;;;;;;;;12883221;23;20287;-70
2023/08/29 13:10:08;;;;;;;10.70;4.37;;;;;;;;;;12883030;23;20004;-70
2023/08/29 13:15:11;;;;;;;9.30;3.97;;;;;;;;;;12884155;23;20000;-70
2023/08/29 13:20:12;;;;;;;9.30;4.25;;;;;;;;;;12835327;23;20239;-70
2023/08/29 13:25:13;;;;;;;8.73;4.40;;;;;;;;;;12882713;23;19992;-70
2023/08/29 13:30:13;;;;;;;11.63;4.50;;;;;;;;;;12883132;23;20222;-70
2023/08/29 13:35:14;;;;;;;6.67;4.60;;;;;;;;;;12882788;23;20047;-70
2023/08/29 13:40:14;;;;;;;5.47;4.43;;;;;;;;;;12882877;23;20302;-70
2023/08/29 13:45:16;;;;;;;8.82;4.10;;;;;;;;;;12882727;23;19988;-69
2023/08/29 13:50:17;;;;;;;8.73;4.47;;;;;;;;;;12882411;23;20203;-70
2023/08/29 13:55:17;;;;;;;12.75;4.65;;;;;;;;;;12882633;23;20024;-69
2023/08/29 14:00:18;;;;;;;12.67;6.10;;;;;;;;;;12873843;23;20027;-69
2023/08/29 14:05:18;;;;;;;8.68;5.80;;;;;;;;;;12882313;23;19999;-68
2023/08/29 14:10:18;;;;;;;10.05;5.75;;;;;;;;;;12881863;23;20275;-66
2023/08/29 14:15:19;;;;;;;7.67;5.37;;;;;;;;;;12834698;23;20020;-69
2023/08/29 14:20:19;;;;;;;13.77;7.57;;;;;;;;;;12882177;23;20012;-71
2023/08/29 14:25:19;;;;;;;19.40;8.98;;;;;;;;;;12882403;23;19999;-70
2023/08/29 14:30:20;;;;;;;17.13;8.37;;;;;;;;;;12882159;23;20287;-70
2023/08/29 14:35:21;;;;;;;15.32;8.25;;;;;;;;;;12886532;23;19989;-70
2023/08/29 14:40:24;;;;;;;17.60;8.48;;;;;;;;;;12841391;23;20003;-70
2023/08/29 14:45:24;;;;;;;18.60;9.40;;;;;;;;;;12888431;23;20175;-70
2023/08/29 14:50:25;;;;;;;16.38;8.50;;;;;;;;;;12888674;23;20019;-70
2023/08/29 14:55:25;;;;;;;15.48;7.60;;;;;;;;;;12888960;23;20178;-70
2023/08/29 15:00:25;;;;;;;11.40;8.00;;;;;;;;;;12880466;23;20063;-71
2023/08/29 15:05:28;;;;;;;14.07;8.10;;;;;;;;;;12888440;23;20020;-71
2023/08/29 15:10:30;;;;;;;14.00;8.32;;;;;;;;;;12887912;23;20043;-69
2023/08/29 15:15:30;;;;;;;12.43;7.45;;;;;;;;;;12888598;23;19984;-71
2023/08/29 15:20:31;;;;;;;16.45;6.88;;;;;;;;;;12888439;23;20175;-69
2023/08/29 15:25:31;;;;;;;22.40;7.40;;;;;;;;;;12888593;23;19995;-69
2023/08/29 15:30:31;;;;;;;13.60;6.50;;;;;;;;;;12887805;23;20095;-69
2023/08/29 15:35:31;;;;;;;13.17;6.40;;;;;;;;;;12888009;23;20031;-71
2023/08/29 15:40:32;;;;;;;13.30;6.88;;;;;;;;;;12887804;23;20000;-69
2023/08/29 15:45:34;;;;;;;13.00;6.88;;;;;;;;;;12886357;23;20075;-70
2023/08/29 15:50:35;;;;;;;13.23;6.80;;;;;;;;;;12884747;23;20000;-70
2023/08/29 15:55:36;;;;;;;17.60;7.05;;;;;;;;;;12863396;23;20245;-70
2023/08/29 16:00:36;;;;;;;12.10;6.85;;;;;;;;;;12874549;23;20051;-70
2023/08/29 16:05:37;;;;;;;22.90;8.27;;;;;;;;;;12884782;23;20245;-70
2023/08/29 16:10:39;;;;;;;19.00;9.85;;;;;;;;;;12884331;23;20295;-69
2023/08/29 16:15:40;;;;;;;16.48;8.57;;;;;;;;;;12884529;23;19999;-69
2023/08/29 16:20:40;;;;;;;14.93;9.05;;;;;;;;;;12884151;23;19989;-70
2023/08/29 16:25:41;;;;;;;18.27;11.55;;;;;;;;;;12884072;23;20054;-70
2023/08/29 16:30:41;;;;;;;15.38;8.52;;;;;;;;;;12884265;23;20440;-69
2023/08/29 16:35:41;;;;;;;16.35;9.27;;;;;;;;;;12883551;23;20172;-69
2023/08/29 16:40:42;;;;;;;20.13;8.88;;;;;;;;;;12883868;23;20031;-69
2023/08/29 16:45:42;;;;;;;10.80;8.20;;;;;;;;;;12884072;23;19996;-70
2023/08/29 16:50:46;;;;;;;13.70;8.38;;;;;;;;;;12836135;23;20008;-71
2023/08/29 16:55:48;;;;;;;19.58;8.43;;;;;;;;;;12883738;23;20236;-68
2023/08/29 17:00:48;;;;;;;13.60;8.57;;;;;;;;;;12872964;23;20016;-74
2023/08/29 17:05:48;;;;;;;13.35;8.50;;;;;;;;;;12835670;23;20053;-74
2023/08/29 17:10:49;;;;;;;20.13;8.88;;;;;;;;;;12883285;23;20068;-75
2023/08/29 17:15:49;;;;;;;12.15;7.80;;;;;;;;;;12883536;23;20445;-74
2023/08/29 17:20:49;;;;;;;15.90;8.63;;;;;;;;;;12882956;23;20016;-76
2023/08/29 17:25:50;;;;;;;14.82;8.13;;;;;;;;;;12883265;23;20039;-72
2023/08/29 17:30:50;;;;;;;12.73;7.85;;;;;;;;;;12882906;23;20068;-73
2023/08/29 17:35:50;;;;;;;15.93;8.50;;;;;;;;;;12882375;23;20187;-74
2023/08/29 17:40:50;;;;;;;14.77;8.73;;;;;;;;;;12882403;23;20136;-72
2023/08/29 17:45:55;;;;;;;15.65;9.25;;;;;;;;;;12882429;23;20060;-73
2023/08/29 17:50:58;;;;;;;12.45;7.90;;;;;;;;;;12834210;23;20005;-68
2023/08/29 17:55:59;;;;;;;14.80;8.32;;;;;;;;;;12881898;23;19996;-68
2023/08/29 18:00:59;;;;;;;22.85;8.70;;;;;;;;;;12870678;23;20212;-68
2023/08/29 18:05:59;;;;;;;21.23;9.98;;;;;;;;;;12881771;23;20003;-73
2023/08/29 18:10:59;;;;;;;16.75;9.77;;;;;;;;;;12881654;23;19997;-74
2023/08/29 18:16:02;;;;;;;17.70;9.63;;;;;;;;;;12834556;23;20011;-74
2023/08/29 18:21:02;;;;;;;26.77;10.82;;;;;;;;;;12881675;23;20183;-74
2023/08/29 18:26:05;;;;;;;20.30;11.07;;;;;;;;;;12833871;23;20007;-73
2023/08/29 18:31:05;;;;;;;18.30;11.50;;;;;;;;;;12871216;23;20278;-70
2023/08/29 18:36:06;;;;;;;16.80;12.25;;;;;;;;;;12868610;23;19985;-70
2023/08/29 18:41:06;;;;;;;16.02;12.35;;;;;;;;;;12870114;23;20023;-73
2023/08/29 18:46:06;;;;;;;25.27;13.33;;;;;;;;;;12869791;23;19993;-72
2023/08/29 18:51:07;;;;;;;19.02;10.30;;;;;;;;;;12868374;23;20247;-72
2023/08/29 18:56:07;;;;;;;17.52;9.57;;;;;;;;;;12870207;23;20219;-72
2023/08/29 19:01:11;;;;;;;14.70;8.40;;;;;;;;;;12850965;23;20059;-73
2023/08/29 19:06:13;;;;;;;12.30;9.05;;;;;;;;;;12865777;23;20259;-77
2023/08/29 19:11:14;;;;;;;13.60;8.77;;;;;;;;;;12866411;23;20009;-70
2023/08/29 19:16:15;;;;;;;15.05;8.43;;;;;;;;;;12865581;23;20008;-70
2023/08/29 19:21:15;;;;;;;15.38;8.93;;;;;;;;;;12868145;23;20060;-76
2023/08/29 19:26:15;;;;;;;17.73;10.20;;;;;;;;;;12847382;23;20008;-81
2023/08/29 19:31:16;;;;;;;13.67;9.10;;;;;;;;;;12822487;23;20252;-77
2023/08/29 19:36:16;;;;;;;17.95;10.38;;;;;;;;;;12869031;23;20239;-78
2023/08/29 19:41:17;;;;;;;14.60;9.55;;;;;;;;;;12822907;23;20004;-76
2023/08/29 19:46:17;;;;;;;31.75;12.63;;;;;;;;;;12869839;23;19996;-79
2023/08/29 19:51:18;;;;;;;17.48;9.40;;;;;;;;;;12868538;23;20027;-77
2023/08/29 19:56:18;;;;;;;20.40;10.15;;;;;;;;;;12870164;23;20199;-81
2023/08/29 20:01:18;;;;;;;26.10;10.57;;;;;;;;;;12821545;23;20020;-68
2023/08/29 20:06:21;;;;;;;17.80;10.33;;;;;;;;;;12874808;23;19996;-85
2023/08/29 20:11:21;;;;;;;22.88;10.50;;;;;;;;;;12831129;23;20119;-71
2023/08/29 20:16:21;;;;;;;16.38;10.63;;;;;;;;;;12869045;23;20259;-69
2023/08/29 20:21:22;;;;;;;16.30;9.70;;;;;;;;;;12868556;23;20079;-68
2023/08/29 20:26:22;;;;;;;26.80;11.55;;;;;;;;;;12868772;23;20000;-69
2023/08/29 20:31:22;;;;;;;20.70;11.50;;;;;;;;;;12869123;23;20202;-76
2023/08/29 20:36:23;;;;;;;19.45;11.75;;;;;;;;;;12871494;23;19989;-85
2023/08/29 20:41:23;;;;;;;21.53;10.60;;;;;;;;;;12830254;23;20228;-88
2023/08/29 20:46:23;;;;;;;17.63;10.60;;;;;;;;;;12880279;23;19992;-89
2023/08/29 20:51:24;;;;;;;23.40;10.07;;;;;;;;;;12831519;23;20354;-71
2023/08/29 20:56:24;;;;;;;21.40;11.40;;;;;;;;;;12884636;23;20048;-70
2023/08/29 21:01:24;;;;;;;16.30;10.70;;;;;;;;;;12868808;23;20024;-71
2023/08/29 21:06:25;;;;;;;24.52;11.60;;;;;;;;;;12884439;23;19996;-71
2023/08/29 21:11:25;;;;;;;16.40;11.00;;;;;;;;;;12882883;23;20003;-71
2023/08/29 21:16:25;;;;;;;17.83;10.60;;;;;;;;;;12885170;23;20203;-71
2023/08/29 21:21:26;;;;;;;19.30;10.27;;;;;;;;;;12884507;23;19999;-71
2023/08/29 21:26:26;;;;;;;25.98;10.25;;;;;;;;;;12884604;23;20009;-71
2023/08/29 21:31:26;;;;;;;16.00;10.18;;;;;;;;;;12836678;23;20305;-71
2023/08/29 21:36:26;;;;;;;16.05;8.15;;;;;;;;;;12884535;23;20030;-71
2023/08/29 21:41:27;;;;;;;16.38;9.15;;;;;;;;;;12884382;23;20011;-71
2023/08/29 21:46:27;;;;;;;14.57;8.20;;;;;;;;;;12884699;23;20285;-72
2023/08/29 21:51:28;;;;;;;21.42;11.52;;;;;;;;;;12884113;23;20294;-72
2023/08/29 21:56:28;;;;;;;15.07;9.43;;;;;;;;;;12883930;23;20086;-72
2023/08/29 22:01:28;;;;;;;17.65;10.13;;;;;;;;;;12836227;23;20334;-72
2023/08/29 22:06:28;;;;;;;24.90;10.25;;;;;;;;;;12883639;23;20020;-71
2023/08/29 22:11:30;;;;;;;19.05;10.32;;;;;;;;;;12883562;23;20195;-71
2023/08/29 22:16:30;;;;;;;12.25;8.95;;;;;;;;;;12883685;23;20031;-71
2023/08/29 22:21:30;;;;;;;22.35;10.30;;;;;;;;;;12836138;23;20001;-71
2023/08/29 22:26:31;;;;;;;16.13;10.55;;;;;;;;;;12883773;23;19999;-71
2023/08/29 22:31:31;;;;;;;25.40;11.10;;;;;;;;;;12883081;23;20218;-71
2023/08/29 22:36:31;;;;;;;29.95;12.07;;;;;;;;;;12836071;23;20000;-71
2023/08/29 22:41:31;;;;;;;21.73;11.68;;;;;;;;;;12883695;23;19992;-71
2023/08/29 22:46:32;;;;;;;24.55;12.18;;;;;;;;;;12883361;23;20207;-71
2023/08/29 22:51:32;;;;;;;18.05;11.82;;;;;;;;;;12883189;23;20024;-70
2023/08/29 22:56:32;;;;;;;24.25;11.88;;;;;;;;;;12886156;23;20000;-70
2023/08/29 23:01:34;;;;;;;26.15;12.38;;;;;;;;;;12839943;23;20183;-70
2023/08/29 23:06:34;;;;;;;18.83;13.13;;;;;;;;;;12886348;23;20000;-70
2023/08/29 23:11:38;;;;;;;30.23;15.13;;;;;;;;;;12887419;23;20017;-70
2023/08/29 23:16:39;;;;;;;30.55;12.98;;;;;;;;;;12887373;23;20207;-70
2023/08/29 23:21:39;;;;;;;25.02;15.00;;;;;;;;;;12887007;23;20008;-70
2023/08/29 23:26:39;;;;;;;21.95;13.95;;;;;;;;;;12888148;23;20179;-71
2023/08/29 23:31:40;;;;;;;24.42;14.23;;;;;;;;;;12887197;23;19996;-71
2023/08/29 23:36:40;;;;;;;26.10;13.97;;;;;;;;;;12886757;23;19989;-71
2023/08/29 23:41:41;;;;;;;19.85;13.93;;;;;;;;;;12886648;23;20194;-69
2023/08/29 23:46:41;;;;;;;19.55;13.70;;;;;;;;;;12887076;23;20000;-69
2023/08/29 23:51:41;;;;;;;24.83;13.48;;;;;;;;;;12886364;23;20067;-70
2023/08/29 23:56:41;;;;;;;25.10;14.50;;;;;;;;;;12886356;23;19988;-70
